createdAt,value
2019-02-09T00:02:09.311Z,99300.87
2019-02-09T00:04:42.957Z,99297.39
2019-02-09T00:07:16.380Z,99302.38
2019-02-09T00:09:49.821Z,99296.30
2019-02-09T00:12:23.260Z,99287.83
2019-02-09T00:14:57.009Z,99286.88
2019-02-09T00:17:30.527Z,99287.66
2019-02-09T00:20:07.195Z,99287.06
2019-02-09T00:22:40.737Z,99274.81
2019-02-09T00:25:16.186Z,99266.31
2019-02-09T00:27:49.838Z,99265.44
2019-02-09T00:30:24.365Z,99244.31
2019-02-09T00:32:57.906Z,99251.91
2019-02-09T00:35:31.480Z,99251.78
2019-02-09T00:38:05.082Z,99251.00
2019-02-09T00:40:38.686Z,99241.84
2019-02-09T00:43:12.228Z,99240.64
2019-02-09T00:45:45.745Z,99238.22
2019-02-09T00:48:19.239Z,99227.23
2019-02-09T00:50:52.862Z,99227.45
2019-02-09T00:53:26.469Z,99214.44
2019-02-09T00:55:59.991Z,99222.56
2019-02-09T00:58:33.504Z,99224.83
2019-02-09T01:01:07.003Z,99217.42
2019-02-09T01:03:40.686Z,99211.30
2019-02-09T01:06:14.199Z,99207.45
2019-02-09T01:08:47.701Z,99207.19
2019-02-09T01:11:21.143Z,99201.93
2019-02-09T01:13:54.587Z,99199.42
2019-02-09T01:16:28.091Z,99206.13
2019-02-09T01:19:01.658Z,99201.34
2019-02-09T01:21:35.176Z,99203.13
2019-02-09T01:24:08.611Z,99201.07
2019-02-09T01:26:42.048Z,99199.17
2019-02-09T01:29:15.644Z,99190.63
2019-02-09T01:31:49.082Z,99193.59
2019-02-09T01:34:22.601Z,99192.31
2019-02-09T01:36:56.175Z,99187.20
2019-02-09T01:39:29.593Z,99183.61
2019-02-09T01:42:03.112Z,99180.20
2019-02-09T01:44:36.987Z,99177.08
2019-02-09T01:47:10.578Z,99164.84
2019-02-09T01:49:43.923Z,99159.23
2019-02-09T01:52:17.364Z,99154.36
2019-02-09T01:54:50.857Z,99150.09
2019-02-09T01:57:24.346Z,99141.42
2019-02-09T01:59:57.830Z,99133.78
2019-02-09T02:02:31.286Z,99133.27
2019-02-09T02:05:07.186Z,99129.94
2019-02-09T02:07:40.615Z,99127.66
2019-02-09T02:10:20.007Z,99123.87
2019-02-09T02:12:53.487Z,99114.34
2019-02-09T02:15:27.794Z,99116.64
2019-02-09T02:18:01.734Z,99105.62
2019-02-09T02:20:35.195Z,99098.36
2019-02-09T02:23:08.757Z,99097.27
2019-02-09T02:25:42.416Z,99092.75
2019-02-09T02:28:15.850Z,99096.59
2019-02-09T02:30:49.384Z,99099.09
2019-02-09T02:33:22.809Z,99089.60
2019-02-09T02:35:56.376Z,99095.72
2019-02-09T02:38:29.812Z,99095.90
2019-02-09T02:41:03.265Z,99093.39
2019-02-09T02:43:36.630Z,99082.34
2019-02-09T02:46:10.383Z,99078.00
2019-02-09T02:48:43.796Z,99081.09
2019-02-09T02:51:17.542Z,99074.45
2019-02-09T02:53:50.980Z,99063.34
2019-02-09T02:56:24.452Z,99061.75
2019-02-09T02:58:57.869Z,99057.02
2019-02-09T03:01:31.242Z,99057.23
2019-02-09T03:04:04.929Z,99049.22
2019-02-09T03:06:38.626Z,99044.08
2019-02-09T03:09:12.127Z,99045.91
2019-02-09T03:11:45.703Z,99045.31
2019-02-09T03:14:19.252Z,99041.73
2019-02-09T03:16:52.694Z,99032.89
2019-02-09T03:19:26.187Z,99035.50
2019-02-09T03:21:59.685Z,99036.70
2019-02-09T03:24:33.124Z,99033.05
2019-02-09T03:27:06.588Z,99031.08
2019-02-09T03:29:39.938Z,99035.38
2019-02-09T03:32:13.402Z,99038.31
2019-02-09T03:34:47.053Z,99033.19
2019-02-09T03:37:20.502Z,99030.77
2019-02-09T03:39:53.923Z,99049.77
2019-02-09T03:42:27.469Z,99035.09
2019-02-09T03:45:01.068Z,99041.73
2019-02-09T03:47:34.698Z,99044.20
2019-02-09T03:50:11.294Z,99046.89
2019-02-09T03:52:44.910Z,99042.10
2019-02-09T03:55:18.361Z,99046.63
2019-02-09T03:57:51.798Z,99020.80
2019-02-09T04:00:27.347Z,99027.91
2019-02-09T04:03:02.424Z,99018.02
2019-02-09T04:05:35.937Z,99006.16
2019-02-09T04:08:09.448Z,99005.88
2019-02-09T04:10:43.015Z,99017.61
2019-02-09T04:13:16.794Z,99015.69
2019-02-09T04:15:50.246Z,99022.90
2019-02-09T04:18:23.624Z,99020.99
2019-02-09T04:20:57.114Z,99014.64
2019-02-09T04:23:30.543Z,99012.45
2019-02-09T04:26:04.031Z,99007.94
2019-02-09T04:28:37.491Z,99003.25
2019-02-09T04:31:10.907Z,98997.53
2019-02-09T04:33:44.436Z,98999.69
2019-02-09T04:36:17.880Z,99005.94
2019-02-09T04:38:51.322Z,99006.34
2019-02-09T04:41:24.740Z,99000.61
2019-02-09T04:43:58.186Z,99010.08
2019-02-09T04:46:31.603Z,98994.58
2019-02-09T04:49:05.119Z,99002.33
2019-02-09T04:51:38.631Z,99000.40
2019-02-09T04:54:12.086Z,99009.84
2019-02-09T04:56:45.498Z,99003.70
2019-02-09T04:59:18.901Z,99002.83
2019-02-09T05:01:52.395Z,98993.02
2019-02-09T05:04:25.840Z,99001.38
2019-02-09T05:06:59.220Z,98995.17
2019-02-09T05:09:32.757Z,98988.02
2019-02-09T05:12:06.310Z,98993.58
2019-02-09T05:14:39.942Z,98984.59
2019-02-09T05:17:13.363Z,98986.52
2019-02-09T05:19:46.831Z,98981.95
2019-02-09T05:22:20.234Z,98978.12
2019-02-09T05:24:53.749Z,98973.97
2019-02-09T05:27:27.148Z,98983.25
2019-02-09T05:30:00.746Z,98980.02
2019-02-09T05:32:34.346Z,98994.26
2019-02-09T05:35:09.895Z,98995.80
2019-02-09T05:37:43.327Z,98997.41
2019-02-09T05:40:19.896Z,99006.44
2019-02-09T05:42:53.716Z,99002.79
2019-02-09T05:45:29.673Z,98995.90
2019-02-09T05:48:03.199Z,99000.87
2019-02-09T05:50:36.624Z,99011.22
2019-02-09T05:53:10.242Z,99002.34
2019-02-09T05:55:43.648Z,99005.80
2019-02-09T05:58:17.028Z,99002.37
2019-02-09T06:00:50.644Z,99006.17
2019-02-09T06:03:24.312Z,99007.54
2019-02-09T06:05:57.813Z,98999.41
2019-02-09T06:08:31.328Z,98975.70
2019-02-09T06:11:04.838Z,98996.36
2019-02-09T06:13:38.274Z,98998.63
2019-02-09T06:16:11.620Z,99001.75
2019-02-09T06:18:45.058Z,98985.59
2019-02-09T06:21:18.497Z,99007.25
2019-02-09T06:23:51.983Z,98996.27
2019-02-09T06:26:25.542Z,98999.59
2019-02-09T06:28:59.013Z,98999.28
2019-02-09T06:31:40.246Z,99015.05
2019-02-09T06:34:07.663Z,99004.97
2019-02-09T06:36:41.122Z,99009.90
2019-02-09T06:39:14.573Z,99009.45
2019-02-09T06:41:47.942Z,99015.19
2019-02-09T06:44:21.399Z,99011.85
2019-02-09T06:46:54.812Z,99016.00
2019-02-09T06:49:28.393Z,99022.89
2019-02-09T06:52:01.895Z,99025.77
2019-02-09T06:54:35.508Z,99025.54
2019-02-09T06:57:08.846Z,99025.10
2019-02-09T06:59:42.286Z,99030.58
2019-02-09T07:02:15.653Z,99024.56
2019-02-09T07:04:49.111Z,99027.81
2019-02-09T07:07:22.464Z,99032.70
2019-02-09T07:09:55.951Z,99028.27
2019-02-09T07:12:29.715Z,99038.27
2019-02-09T07:15:03.624Z,99041.83
2019-02-09T07:17:37.059Z,99045.07
2019-02-09T07:20:12.378Z,99038.52
2019-02-09T07:22:45.860Z,99047.64
2019-02-09T07:25:19.801Z,99059.41
2019-02-09T07:27:53.395Z,99054.44
2019-02-09T07:30:30.979Z,99053.72
2019-02-09T07:33:06.128Z,99060.51
2019-02-09T07:35:39.820Z,99053.93
2019-02-09T07:38:13.631Z,99059.68
2019-02-09T07:40:47.082Z,99061.65
2019-02-09T07:43:20.499Z,99063.95
2019-02-09T07:45:54.047Z,99057.95
2019-02-09T07:48:27.683Z,99060.50
2019-02-09T07:51:01.132Z,99064.69
2019-02-09T07:53:34.474Z,99065.59
2019-02-09T07:56:07.918Z,99068.40
2019-02-09T07:58:41.398Z,99069.06
2019-02-09T08:01:15.413Z,99067.13
2019-02-09T08:03:49.466Z,99071.28
2019-02-09T08:06:23.335Z,99069.56
2019-02-09T08:08:56.759Z,99076.55
2019-02-09T08:11:30.294Z,99085.31
2019-02-09T08:14:03.946Z,99083.77
2019-02-09T08:16:37.464Z,99088.24
2019-02-09T08:19:10.974Z,99086.52
2019-02-09T08:21:44.460Z,99091.74
2019-02-09T08:24:17.938Z,99094.31
2019-02-09T08:26:51.463Z,99101.34
2019-02-09T08:29:25.028Z,99091.84
2019-02-09T08:31:58.486Z,99088.47
2019-02-09T08:34:32.016Z,99094.19
2019-02-09T08:37:05.686Z,99100.21
2019-02-09T08:39:39.616Z,99097.83
2019-02-09T08:42:13.609Z,99101.58
2019-02-09T08:44:47.133Z,99105.96
2019-02-09T08:47:21.086Z,99111.66
2019-02-09T08:49:54.714Z,99107.91
2019-02-09T08:52:28.190Z,99100.09
2019-02-09T08:55:01.750Z,99109.80
2019-02-09T08:57:35.231Z,99104.93
2019-02-09T09:00:14.589Z,99114.31
2019-02-09T09:02:48.086Z,99109.74
2019-02-09T09:05:21.784Z,99119.54
2019-02-09T09:07:55.353Z,99119.68
2019-02-09T09:10:32.204Z,99121.31
2019-02-09T09:13:05.862Z,99129.87
2019-02-09T09:15:44.717Z,99127.41
2019-02-09T09:18:18.200Z,99125.98
2019-02-09T09:20:54.472Z,99104.23
2019-02-09T09:23:28.008Z,99118.76
2019-02-09T09:26:01.592Z,99114.16
2019-02-09T09:28:35.082Z,99118.02
2019-02-09T09:31:08.811Z,99126.14
2019-02-09T09:33:42.298Z,99118.69
2019-02-09T09:36:15.933Z,99132.91
2019-02-09T09:38:49.342Z,99131.00
2019-02-09T09:41:22.857Z,99134.05
2019-02-09T09:43:56.279Z,99128.87
2019-02-09T09:46:29.735Z,99136.56
2019-02-09T09:49:03.441Z,99135.09
2019-02-09T09:51:36.885Z,99125.67
2019-02-09T09:54:10.476Z,99132.42
2019-02-09T09:56:44.038Z,99138.21
2019-02-09T09:59:17.586Z,99141.94
2019-02-09T10:01:51.060Z,99148.19
2019-02-09T10:04:24.474Z,99152.48
2019-02-09T10:06:57.992Z,99157.11
2019-02-09T10:09:31.889Z,99159.88
2019-02-09T10:12:05.431Z,99155.32
2019-02-09T10:14:38.909Z,99167.87
2019-02-09T10:17:12.432Z,99166.97
2019-02-09T10:19:45.842Z,99165.06
2019-02-09T10:22:19.222Z,99167.94
2019-02-09T10:24:52.637Z,99172.98
2019-02-09T10:27:26.084Z,99173.77
2019-02-09T10:29:59.654Z,99175.27
2019-02-09T10:32:33.319Z,99164.89
2019-02-09T10:35:09.228Z,99154.18
2019-02-09T10:37:42.751Z,99163.83
2019-02-09T10:40:30.539Z,99174.41
2019-02-09T10:43:06.694Z,99188.06
2019-02-09T10:45:40.141Z,99186.42
2019-02-09T10:48:13.728Z,99187.52
2019-02-09T10:50:47.963Z,99185.63
2019-02-09T10:53:21.446Z,99192.52
2019-02-09T10:55:54.891Z,99178.00
2019-02-09T10:58:28.236Z,99192.25
2019-02-09T11:01:04.816Z,99189.17
2019-02-09T11:03:38.369Z,99192.94
2019-02-09T11:06:12.067Z,99184.84
2019-02-09T11:08:45.849Z,99178.64
2019-02-09T11:11:19.288Z,99180.22
2019-02-09T11:13:52.787Z,99183.30
2019-02-09T11:16:26.344Z,99181.77
2019-02-09T11:18:59.760Z,99178.33
2019-02-09T11:21:33.267Z,99165.46
2019-02-09T11:24:06.794Z,99165.63
2019-02-09T11:26:40.372Z,99161.72
2019-02-09T11:29:13.740Z,99150.09
2019-02-09T11:31:47.195Z,99153.06
2019-02-09T11:34:20.614Z,99153.31
2019-02-09T11:36:54.055Z,99139.57
2019-02-09T11:39:27.467Z,99156.43
2019-02-09T11:42:01.016Z,99168.41
2019-02-09T11:44:41.048Z,99155.28
2019-02-09T11:47:09.730Z,99144.20
2019-02-09T11:49:43.260Z,99153.94
2019-02-09T11:52:16.756Z,99167.48
2019-02-09T11:54:50.270Z,99171.72
2019-02-09T11:57:23.806Z,99158.37
2019-02-09T11:59:57.298Z,99177.45
2019-02-09T12:02:30.859Z,99153.97
2019-02-09T12:05:06.080Z,99146.23
2019-02-09T12:07:39.616Z,99145.88
2019-02-09T12:10:18.524Z,99148.12
2019-02-09T12:12:51.929Z,99155.22
2019-02-09T12:15:27.758Z,99140.65
2019-02-09T12:18:01.300Z,99144.94
2019-02-09T12:20:34.856Z,99145.65
2019-02-09T12:23:08.297Z,99140.62
2019-02-09T12:25:41.788Z,99133.67
2019-02-09T12:28:15.303Z,99158.30
2019-02-09T12:30:48.768Z,99153.67
2019-02-09T12:33:23.371Z,99168.08
2019-02-09T12:35:57.029Z,99187.59
2019-02-09T12:38:30.569Z,99199.81
2019-02-09T12:41:04.194Z,99214.30
2019-02-09T12:43:37.870Z,99214.50
2019-02-09T12:46:11.475Z,99206.23
2019-02-09T12:48:44.895Z,99201.47
2019-02-09T12:51:18.426Z,99200.33
2019-02-09T12:53:51.863Z,99203.14
2019-02-09T12:56:25.395Z,99209.39
2019-02-09T12:58:58.919Z,99200.19
2019-02-09T13:01:32.361Z,99198.94
2019-02-09T13:04:05.921Z,99202.06
2019-02-09T13:06:39.442Z,99197.32
2019-02-09T13:09:12.855Z,99203.20
2019-02-09T13:11:46.497Z,99188.61
2019-02-09T13:14:19.907Z,99191.21
2019-02-09T13:16:53.277Z,99196.17
2019-02-09T13:19:26.687Z,99188.23
2019-02-09T13:22:00.138Z,99179.40
2019-02-09T13:24:33.696Z,99178.73
2019-02-09T13:27:07.227Z,99167.29
2019-02-09T13:29:40.897Z,99174.38
2019-02-09T13:32:14.432Z,99176.63
2019-02-09T13:34:48.122Z,99175.50
2019-02-09T13:37:21.852Z,99171.12
2019-02-09T13:39:55.559Z,99163.00
2019-02-09T13:42:28.975Z,99170.72
2019-02-09T13:45:02.497Z,99179.56
2019-02-09T13:47:36.001Z,99182.31
2019-02-09T13:50:12.646Z,99170.02
2019-02-09T13:52:46.046Z,99163.27
2019-02-09T13:55:19.599Z,99170.33
2019-02-09T13:57:53.088Z,99179.40
2019-02-09T14:00:29.394Z,99164.19
2019-02-09T14:03:03.693Z,99164.59
2019-02-09T14:05:37.290Z,99169.77
2019-02-09T14:08:10.722Z,99167.31
2019-02-09T14:10:44.255Z,99160.54
2019-02-09T14:13:17.698Z,99168.89
2019-02-09T14:15:51.228Z,99161.73
2019-02-09T14:18:24.646Z,99160.80
2019-02-09T14:20:58.181Z,99169.05
2019-02-09T14:23:31.595Z,99166.66
2019-02-09T14:26:05.619Z,99162.67
2019-02-09T14:28:39.115Z,99156.27
2019-02-09T14:31:12.570Z,99159.59
2019-02-09T14:33:45.981Z,99166.08
2019-02-09T14:36:19.586Z,99176.47
2019-02-09T14:38:53.390Z,99169.38
2019-02-09T14:41:26.868Z,99182.88
2019-02-09T14:44:00.284Z,99183.48
2019-02-09T14:46:33.742Z,99201.11
2019-02-09T14:49:07.255Z,99200.11
2019-02-09T14:51:40.704Z,99198.67
2019-02-09T14:54:14.127Z,99195.88
2019-02-09T14:56:47.664Z,99209.20
2019-02-09T14:59:21.148Z,99198.44
2019-02-09T15:01:54.714Z,99192.44
2019-02-09T15:04:28.245Z,99202.42
2019-02-09T15:07:01.698Z,99198.01
2019-02-09T15:09:35.124Z,99210.11
2019-02-09T15:12:08.624Z,99199.55
2019-02-09T15:14:42.068Z,99207.19
2019-02-09T15:17:15.480Z,99205.41
2019-02-09T15:19:48.963Z,99208.70
2019-02-09T15:22:22.392Z,99200.07
2019-02-09T15:24:55.993Z,99200.48
2019-02-09T15:27:29.443Z,99204.72
2019-02-09T15:30:02.974Z,99206.78
2019-02-09T15:32:36.457Z,99200.56
2019-02-09T15:35:15.386Z,99209.55
2019-02-09T15:37:48.927Z,99218.50
2019-02-09T15:40:23.180Z,99209.13
2019-02-09T15:42:57.216Z,99234.41
2019-02-09T15:45:30.675Z,99250.42
2019-02-09T15:48:04.848Z,99251.16
2019-02-09T15:50:38.348Z,99278.23
2019-02-09T15:53:11.706Z,99279.31
2019-02-09T15:55:45.154Z,99277.42
2019-02-09T15:58:18.682Z,99284.06
2019-02-09T16:00:52.127Z,99288.80
2019-02-09T16:03:25.627Z,99303.88
2019-02-09T16:05:59.137Z,99299.39
2019-02-09T16:08:32.508Z,99302.95
2019-02-09T16:11:05.968Z,99318.69
2019-02-09T16:13:45.560Z,99305.63
2019-02-09T16:16:14.868Z,99321.69
2019-02-09T16:18:48.348Z,99325.80
2019-02-09T16:21:22.141Z,99341.73
2019-02-09T16:23:55.660Z,99346.61
2019-02-09T16:26:29.108Z,99335.73
2019-02-09T16:29:02.518Z,99334.92
2019-02-09T16:31:36.145Z,99343.13
2019-02-09T16:34:09.564Z,99347.07
2019-02-09T16:36:43.223Z,99354.36
2019-02-09T16:39:16.665Z,99353.52
2019-02-09T16:41:50.130Z,99371.23
2019-02-09T16:44:23.689Z,99366.05
2019-02-09T16:46:57.156Z,99387.56
2019-02-09T16:49:30.792Z,99374.73
2019-02-09T16:52:04.481Z,99378.89
2019-02-09T16:54:37.923Z,99387.00
2019-02-09T16:57:11.363Z,99386.66
2019-02-09T16:59:44.807Z,99384.26
2019-02-09T17:02:18.332Z,99387.79
2019-02-09T17:04:51.751Z,99400.01
2019-02-09T17:07:25.361Z,99402.67
2019-02-09T17:09:58.962Z,99400.39
2019-02-09T17:12:32.400Z,99402.48
2019-02-09T17:15:09.220Z,99398.00
2019-02-09T17:17:42.777Z,99400.88
2019-02-09T17:20:16.680Z,99400.17
2019-02-09T17:22:51.759Z,99406.66
2019-02-09T17:25:28.504Z,99402.63
2019-02-09T17:28:01.990Z,99415.24
2019-02-09T17:30:37.419Z,99402.40
2019-02-09T17:33:10.947Z,99407.93
2019-02-09T17:35:44.433Z,99408.83
2019-02-09T17:38:17.906Z,99420.19
2019-02-09T17:40:51.344Z,99425.25
2019-02-09T17:43:24.868Z,99425.62
2019-02-09T17:46:03.911Z,99425.70
2019-02-09T17:48:37.420Z,99427.73
2019-02-09T17:51:10.892Z,99437.00
2019-02-09T17:53:45.282Z,99429.13
2019-02-09T17:56:18.832Z,99435.23
2019-02-09T17:58:52.438Z,99438.44
2019-02-09T18:01:25.918Z,99439.53
2019-02-09T18:04:00.264Z,99443.71
2019-02-09T18:06:34.026Z,99443.67
2019-02-09T18:09:07.958Z,99447.95
2019-02-09T18:11:41.588Z,99449.27
2019-02-09T18:14:14.998Z,99466.75
2019-02-09T18:16:48.461Z,99468.30
2019-02-09T18:19:22.044Z,99468.34
2019-02-09T18:21:55.531Z,99467.73
2019-02-09T18:24:28.951Z,99471.01
2019-02-09T18:27:02.433Z,99473.36
2019-02-09T18:29:35.912Z,99468.95
2019-02-09T18:32:09.440Z,99482.72
2019-02-09T18:34:42.869Z,99469.91
2019-02-09T18:37:16.407Z,99468.38
2019-02-09T18:39:49.985Z,99477.23
2019-02-09T18:42:23.467Z,99485.20
2019-02-09T18:44:57.191Z,99489.08
2019-02-09T18:47:30.913Z,99486.03
2019-02-09T18:50:07.229Z,99495.57
2019-02-09T18:52:40.725Z,99501.39
2019-02-09T18:55:16.695Z,99495.80
2019-02-09T18:57:50.280Z,99491.37
2019-02-09T19:00:26.236Z,99493.22
2019-02-09T19:02:59.717Z,99503.13
2019-02-09T19:05:33.275Z,99510.06
2019-02-09T19:08:07.937Z,99517.36
2019-02-09T19:10:41.368Z,99507.97
2019-02-09T19:13:14.910Z,99513.53
2019-02-09T19:15:48.443Z,99514.92
2019-02-09T19:18:21.915Z,99522.28
2019-02-09T19:20:58.120Z,99527.88
2019-02-09T19:23:31.591Z,99529.68
2019-02-09T19:26:05.180Z,99543.84
2019-02-09T19:28:38.681Z,99537.72
2019-02-09T19:31:12.090Z,99531.89
2019-02-09T19:33:45.588Z,99540.53
2019-02-09T19:36:19.066Z,99534.19
2019-02-09T19:38:52.451Z,99552.73
2019-02-09T19:41:25.804Z,99553.75
2019-02-09T19:43:59.434Z,99553.91
2019-02-09T19:46:32.847Z,99562.72
2019-02-09T19:49:06.391Z,99563.02
2019-02-09T19:51:39.810Z,99576.67
2019-02-09T19:54:13.398Z,99567.40
2019-02-09T19:56:46.966Z,99579.76
2019-02-09T19:59:20.419Z,99577.41
2019-02-09T20:01:53.851Z,99572.00
2019-02-09T20:04:27.371Z,99579.55
2019-02-09T20:07:00.802Z,99587.75
2019-02-09T20:09:34.369Z,99586.50
2019-02-09T20:12:07.829Z,99582.48
2019-02-09T20:14:41.400Z,99589.45
2019-02-09T20:17:14.772Z,99585.83
2019-02-09T20:19:48.427Z,99585.41
2019-02-09T20:22:21.900Z,99588.80
2019-02-09T20:24:55.469Z,99589.23
2019-02-09T20:27:28.904Z,99586.24
2019-02-09T20:30:02.364Z,99590.90
2019-02-09T20:32:35.834Z,99591.28
2019-02-09T20:35:13.482Z,99595.31
2019-02-09T20:37:47.223Z,99588.38
2019-02-09T20:40:29.399Z,99597.81
2019-02-09T20:43:04.350Z,99601.44
2019-02-09T20:45:38.293Z,99603.92
2019-02-09T20:48:12.705Z,99596.62
2019-02-09T20:50:46.230Z,99605.75
2019-02-09T20:53:19.759Z,99603.74
2019-02-09T20:55:53.201Z,99598.82
2019-02-09T20:58:26.801Z,99595.06
2019-02-09T21:01:00.319Z,99605.63
2019-02-09T21:03:33.837Z,99605.89
2019-02-09T21:06:07.378Z,99612.20
2019-02-09T21:08:40.897Z,99605.34
2019-02-09T21:11:14.378Z,99611.27
2019-02-09T21:13:47.950Z,99615.28
2019-02-09T21:16:21.364Z,99619.66
2019-02-09T21:18:54.897Z,99613.30
2019-02-09T21:21:28.331Z,99608.89
2019-02-09T21:24:01.892Z,99613.40
2019-02-09T21:26:35.358Z,99616.86
2019-02-09T21:29:08.855Z,99611.55
2019-02-09T21:31:42.376Z,99614.76
2019-02-09T21:34:15.890Z,99609.48
2019-02-09T21:36:49.333Z,99611.73
2019-02-09T21:39:22.802Z,99613.08
2019-02-09T21:41:56.291Z,99607.97
2019-02-09T21:44:29.740Z,99606.70
2019-02-09T21:47:03.346Z,99611.53
2019-02-09T21:49:36.766Z,99608.97
2019-02-09T21:52:10.352Z,99609.11
2019-02-09T21:54:43.855Z,99612.08
2019-02-09T21:57:17.542Z,99614.56
2019-02-09T21:59:51.241Z,99616.36
2019-02-09T22:02:24.752Z,99623.95
2019-02-09T22:04:58.237Z,99620.56
2019-02-09T22:07:31.757Z,99617.42
2019-02-09T22:10:08.382Z,99619.05
2019-02-09T22:12:41.931Z,99627.98
2019-02-09T22:15:16.778Z,99629.27
2019-02-09T22:17:50.262Z,99629.10
2019-02-09T22:20:23.773Z,99616.52
2019-02-09T22:22:57.314Z,99626.73
2019-02-09T22:25:31.054Z,99619.39
2019-02-09T22:28:04.996Z,99621.49
2019-02-09T22:30:38.540Z,99620.47
2019-02-09T22:33:12.098Z,99620.58
2019-02-09T22:35:45.684Z,99624.02
2019-02-09T22:38:19.260Z,99622.55
2019-02-09T22:40:52.935Z,99621.48
2019-02-09T22:43:26.570Z,99623.30
2019-02-09T22:46:00.057Z,99627.02
2019-02-09T22:48:33.699Z,99627.25
2019-02-09T22:51:07.374Z,99628.05
2019-02-09T22:53:40.852Z,99633.44
2019-02-09T22:56:14.355Z,99635.79
2019-02-09T22:58:47.851Z,99634.61
2019-02-09T23:01:24.438Z,99630.97
2019-02-09T23:04:01.158Z,99641.81
2019-02-09T23:06:43.567Z,99641.72
2019-02-09T23:09:17.067Z,99637.77
2019-02-09T23:11:50.481Z,99640.77
2019-02-09T23:14:23.927Z,99636.97
2019-02-09T23:16:57.338Z,99641.39
2019-02-09T23:19:30.862Z,99645.11
2019-02-09T23:22:04.269Z,99639.32
2019-02-09T23:24:37.730Z,99639.86
2019-02-09T23:27:11.351Z,99646.11
2019-02-09T23:29:44.933Z,99650.13
2019-02-09T23:32:18.495Z,99647.71
2019-02-09T23:34:52.019Z,99649.47
2019-02-09T23:37:25.730Z,99647.75
2019-02-09T23:39:59.272Z,99651.98
2019-02-09T23:42:32.932Z,99648.95
2019-02-09T23:45:07.000Z,99651.44
2019-02-09T23:47:40.419Z,99646.09
2019-02-09T23:50:13.898Z,99648.73
2019-02-09T23:52:47.630Z,99642.42
2019-02-09T23:55:21.181Z,99639.23
2019-02-09T23:57:54.673Z,99634.52
